createdAt,value
2023-11-08T00:02:59.702Z,99816.41
2023-11-08T00:06:03.422Z,99813.44
2023-11-08T00:09:06.464Z,99814.69
2023-11-08T00:12:08.416Z,99815.22
2023-11-08T00:15:11.045Z,99814.56
2023-11-08T00:18:14.248Z,99811.91
2023-11-08T00:21:16.028Z,99823.44
2023-11-08T00:24:18.247Z,99821.72
2023-11-08T00:27:20.061Z,99810.75
2023-11-08T00:30:21.748Z,99801.00
2023-11-08T00:33:24.883Z,99801.94
2023-11-08T00:36:26.675Z,99803.03
2023-11-08T00:39:28.442Z,99803.84
2023-11-08T00:42:30.211Z,99784.22
2023-11-08T00:45:31.955Z,99791.22
2023-11-08T00:48:35.146Z,99794.03
2023-11-08T00:51:37.029Z,99806.72
2023-11-08T00:54:38.852Z,99798.72
2023-11-08T00:57:40.590Z,99794.66
2023-11-08T01:00:42.339Z,99793.66
2023-11-08T01:03:45.454Z,99786.38
2023-11-08T01:06:47.311Z,99787.19
2023-11-08T01:09:49.142Z,99771.53
2023-11-08T01:12:51.028Z,99764.38
2023-11-08T01:15:52.751Z,99760.75
2023-11-08T01:18:55.985Z,99742.50
2023-11-08T01:21:57.687Z,99753.75
2023-11-08T01:24:59.507Z,99757.91
2023-11-08T01:28:01.169Z,99762.28
2023-11-08T01:31:02.980Z,99761.59
2023-11-08T01:34:06.132Z,99762.34
2023-11-08T01:37:07.864Z,99768.44
2023-11-08T01:40:10.184Z,99761.22
2023-11-08T01:43:27.009Z,99756.69
2023-11-08T01:46:28.882Z,99743.31
2023-11-08T01:49:32.009Z,99755.72
2023-11-08T01:52:34.045Z,99772.69
2023-11-08T01:55:35.810Z,99777.88
2023-11-08T01:58:37.911Z,99766.25
2023-11-08T02:01:39.639Z,99762.78
2023-11-08T02:04:42.859Z,99774.44
2023-11-08T02:07:44.641Z,99768.97
2023-11-08T02:10:46.385Z,99770.00
2023-11-08T02:13:48.102Z,99767.47
2023-11-08T02:16:49.820Z,99759.47
2023-11-08T02:19:52.874Z,99763.03
2023-11-08T02:22:54.554Z,99769.44
2023-11-08T02:25:57.604Z,99769.25
2023-11-08T02:28:59.267Z,99762.00
2023-11-08T02:32:00.946Z,99753.34
2023-11-08T02:35:02.630Z,99759.53
2023-11-08T02:38:04.425Z,99760.50
2023-11-08T02:41:07.540Z,99765.13
2023-11-08T02:44:09.452Z,99765.06
2023-11-08T02:47:11.176Z,99763.38
2023-11-08T02:50:12.927Z,99766.91
2023-11-08T02:53:14.662Z,99773.81
2023-11-08T02:56:17.756Z,99782.00
2023-11-08T02:59:19.665Z,99782.88
2023-11-08T03:02:21.622Z,99792.75
2023-11-08T03:05:23.432Z,99791.16
2023-11-08T03:08:25.205Z,99793.81
2023-11-08T03:11:28.262Z,99789.38
2023-11-08T03:14:30.034Z,99794.59
2023-11-08T03:17:31.742Z,99798.75
2023-11-08T03:20:33.530Z,99798.03
2023-11-08T03:23:35.272Z,99795.53
2023-11-08T03:26:38.309Z,99794.66
2023-11-08T03:29:40.040Z,99801.09
2023-11-08T03:32:42.584Z,99798.34
2023-11-08T03:35:44.332Z,99816.00
2023-11-08T03:38:46.064Z,99823.25
2023-11-08T03:41:49.093Z,99828.69
2023-11-08T03:44:50.804Z,99825.16
2023-11-08T03:47:52.610Z,99828.72
2023-11-08T03:50:54.347Z,99836.94
2023-11-08T03:53:56.547Z,99838.84
2023-11-08T03:56:59.668Z,99833.69
2023-11-08T04:00:01.506Z,99840.88
2023-11-08T04:03:03.472Z,99840.19
2023-11-08T04:06:05.612Z,99851.78
2023-11-08T04:09:07.363Z,99858.81
2023-11-08T04:12:11.225Z,99848.22
2023-11-08T04:15:12.972Z,99855.34
2023-11-08T04:18:14.711Z,99853.56
2023-11-08T04:21:16.602Z,99854.50
2023-11-08T04:24:18.329Z,99860.69
2023-11-08T04:27:21.430Z,99866.03
2023-11-08T04:30:23.182Z,99872.19
2023-11-08T04:33:24.912Z,99883.63
2023-11-08T04:36:26.632Z,99890.66
2023-11-08T04:39:28.375Z,99901.31
2023-11-08T04:42:31.481Z,99893.34
2023-11-08T04:45:33.274Z,99901.31
2023-11-08T04:48:35.067Z,99907.50
2023-11-08T04:51:36.925Z,99892.44
2023-11-08T04:54:47.478Z,99893.28
2023-11-08T04:57:55.076Z,99903.94
2023-11-08T05:00:56.860Z,99905.72
2023-11-08T05:04:00.556Z,99900.44
2023-11-08T05:07:02.368Z,99893.34
2023-11-08T05:10:04.831Z,99899.53
2023-11-08T05:13:07.926Z,99904.88
2023-11-08T05:16:09.648Z,99905.72
2023-11-08T05:19:11.421Z,99901.34
2023-11-08T05:22:13.513Z,99915.47
2023-11-08T05:25:16.541Z,99917.28
2023-11-08T05:28:19.765Z,99924.34
2023-11-08T05:31:21.528Z,99927.88
2023-11-08T05:34:23.242Z,99926.91
2023-11-08T05:37:24.925Z,99934.03
2023-11-08T05:40:26.585Z,99942.84
2023-11-08T05:43:30.318Z,99954.31
2023-11-08T05:46:31.862Z,99952.59
2023-11-08T05:49:33.637Z,99962.28
2023-11-08T05:52:35.368Z,99968.47
2023-11-08T05:55:37.094Z,99975.53
2023-11-08T05:58:40.530Z,99971.09
2023-11-08T06:01:42.201Z,99978.19
2023-11-08T06:04:43.886Z,99987.91
2023-11-08T06:07:45.560Z,99989.69
2023-11-08T06:10:47.257Z,100006.47
2023-11-08T06:13:50.356Z,100002.91
2023-11-08T06:16:52.073Z,100003.84
2023-11-08T06:19:53.802Z,100004.69
2023-11-08T06:22:55.547Z,100019.72
2023-11-08T06:25:57.287Z,100018.84
2023-11-08T06:29:00.372Z,100019.72
2023-11-08T06:32:02.029Z,100024.13
2023-11-08T06:35:04.340Z,100020.59
2023-11-08T06:38:06.029Z,100025.03
2023-11-08T06:41:07.705Z,100038.28
2023-11-08T06:44:10.734Z,100040.94
2023-11-08T06:47:12.495Z,100042.75
2023-11-08T06:50:14.193Z,100051.53
2023-11-08T06:53:15.934Z,100058.63
2023-11-08T06:56:17.705Z,100062.16
2023-11-08T06:59:20.760Z,100065.69
2023-11-08T07:02:22.593Z,100071.03
2023-11-08T07:05:30.299Z,100078.09
2023-11-08T07:08:38.063Z,100083.38
2023-11-08T07:11:39.754Z,100069.25
2023-11-08T07:14:42.825Z,100077.19
2023-11-08T07:17:44.572Z,100076.28
2023-11-08T07:20:46.360Z,100079.75
2023-11-08T07:23:48.228Z,100066.41
2023-11-08T07:26:49.980Z,100075.16
2023-11-08T07:29:52.982Z,100072.50
2023-11-08T07:32:54.751Z,100080.34
2023-11-08T07:35:56.446Z,100084.88
2023-11-08T07:38:58.155Z,100084.94
2023-11-08T07:41:59.922Z,100092.06
2023-11-08T07:45:03.376Z,100093.88
2023-11-08T07:48:05.570Z,100107.16
2023-11-08T07:51:07.363Z,100118.63
2023-11-08T07:54:09.018Z,100099.16
2023-11-08T07:57:10.778Z,100119.47
2023-11-08T08:00:14.392Z,100111.50
2023-11-08T08:03:16.239Z,100112.41
2023-11-08T08:06:17.926Z,100116.78
2023-11-08T08:09:19.630Z,100107.91
2023-11-08T08:12:21.353Z,100123.81
2023-11-08T08:15:24.605Z,100108.72
2023-11-08T08:18:26.438Z,100115.84
2023-11-08T08:21:28.315Z,100114.88
2023-11-08T08:24:30.261Z,100129.06
2023-11-08T08:27:32.031Z,100134.31
2023-11-08T08:30:35.819Z,100130.75
2023-11-08T08:33:37.610Z,100139.59
2023-11-08T08:36:39.332Z,100152.00
2023-11-08T08:39:41.094Z,100142.19
2023-11-08T08:42:43.096Z,100156.38
2023-11-08T08:45:46.201Z,100156.22
2023-11-08T08:48:47.972Z,100167.72
2023-11-08T08:51:49.727Z,100163.31
2023-11-08T08:54:51.448Z,100152.72
2023-11-08T08:57:53.231Z,100152.69
2023-11-08T09:00:56.314Z,100143.81
2023-11-08T09:03:58.117Z,100151.78
2023-11-08T09:06:59.946Z,100141.06
2023-11-08T09:10:01.982Z,100151.69
2023-11-08T09:13:03.742Z,100154.25
2023-11-08T09:16:07.574Z,100156.06
2023-11-08T09:19:09.813Z,100153.47
2023-11-08T09:22:11.825Z,100152.44
2023-11-08T09:25:13.739Z,100161.31
2023-11-08T09:28:15.419Z,100161.19
2023-11-08T09:31:18.485Z,100162.00
2023-11-08T09:34:20.315Z,100158.44
2023-11-08T09:37:22.236Z,100166.31
2023-11-08T09:40:23.954Z,100165.38
2023-11-08T09:43:27.061Z,100172.47
2023-11-08T09:46:31.948Z,100171.69
2023-11-08T09:49:35.417Z,100174.22
2023-11-08T09:52:37.329Z,100185.88
2023-11-08T09:55:39.056Z,100185.88
2023-11-08T09:58:44.976Z,100188.63
2023-11-08T10:01:50.831Z,100187.66
2023-11-08T10:04:52.916Z,100176.97
2023-11-08T10:07:54.799Z,100178.75
2023-11-08T10:10:59.079Z,100174.28
2023-11-08T10:14:00.822Z,100185.63
2023-11-08T10:17:05.158Z,100170.78
2023-11-08T10:20:09.538Z,100166.34
2023-11-08T10:23:25.693Z,100168.19
2023-11-08T10:26:27.370Z,100166.44
2023-11-08T10:29:29.069Z,100169.91
2023-11-08T10:32:32.114Z,100170.75
2023-11-08T10:35:37.244Z,100161.81
2023-11-08T10:38:39.020Z,100159.09
2023-11-08T10:41:41.789Z,100166.00
2023-11-08T10:44:43.485Z,100168.66
2023-11-08T10:47:48.247Z,100174.75
2023-11-08T10:50:51.955Z,100165.63
2023-11-08T10:53:53.491Z,100175.25
2023-11-08T10:56:56.899Z,100187.59
2023-11-08T11:00:00.929Z,100167.94
2023-11-08T11:03:09.893Z,100166.22
2023-11-08T11:06:12.426Z,100166.94
2023-11-08T11:09:14.374Z,100174.16
2023-11-08T11:12:24.011Z,100169.72
2023-11-08T11:15:37.014Z,100180.22
2023-11-08T11:18:47.232Z,100177.66
2023-11-08T11:21:52.740Z,100174.09
2023-11-08T11:24:54.511Z,100172.97
2023-11-08T11:27:56.245Z,100169.63
2023-11-08T11:31:36.746Z,100174.00
2023-11-08T11:34:44.408Z,100183.84
2023-11-08T11:38:23.892Z,100184.72
2023-11-08T11:41:27.303Z,100186.41
2023-11-08T11:44:36.973Z,100196.38
2023-11-08T11:47:40.594Z,100195.44
2023-11-08T11:50:43.491Z,100194.44
2023-11-08T11:53:45.934Z,100205.22
2023-11-08T11:56:48.261Z,100206.09
2023-11-08T11:59:51.359Z,100206.00
2023-11-08T12:02:53.184Z,100200.72
2023-11-08T12:05:56.621Z,100197.16
2023-11-08T12:08:58.316Z,100213.22
2023-11-08T12:12:00.014Z,100215.91
2023-11-08T12:15:13.783Z,100224.84
2023-11-08T12:18:15.450Z,100217.59
2023-11-08T12:21:19.095Z,100215.06
2023-11-08T12:24:20.626Z,100215.72
2023-11-08T12:27:22.344Z,100220.06
2023-11-08T12:30:24.007Z,100219.75
2023-11-08T12:33:27.874Z,100216.28
2023-11-08T12:36:31.243Z,100220.81
2023-11-08T12:39:33.028Z,100223.53
2023-11-08T12:42:34.849Z,100222.88
2023-11-08T12:46:34.352Z,100220.34
2023-11-08T12:48:59.526Z,100221.16
2023-11-08T12:52:05.324Z,100227.53
2023-11-08T12:55:07.669Z,100218.59
2023-11-08T12:58:23.198Z,100219.53
2023-11-08T13:01:24.948Z,100214.13
2023-11-08T13:04:26.801Z,100217.84
2023-11-08T13:07:29.911Z,100217.97
2023-11-08T13:10:31.568Z,100221.63
2023-11-08T13:13:33.224Z,100220.72
2023-11-08T13:16:35.063Z,100227.75
2023-11-08T13:19:36.798Z,100223.22
2023-11-08T13:22:39.932Z,100224.06
2023-11-08T13:25:44.239Z,100228.53
2023-11-08T13:28:46.735Z,100234.72
2023-11-08T13:31:48.446Z,100229.44
2023-11-08T13:34:50.196Z,100240.97
2023-11-08T13:37:53.336Z,100241.03
2023-11-08T13:40:55.099Z,100242.81
2023-11-08T13:43:56.799Z,100251.59
2023-11-08T13:46:58.490Z,100252.56
2023-11-08T13:50:00.305Z,100262.34
2023-11-08T13:53:03.471Z,100260.59
2023-11-08T13:56:05.908Z,100264.91
2023-11-08T13:59:07.666Z,100270.28
2023-11-08T14:02:09.427Z,100261.28
2023-11-08T14:05:11.260Z,100259.59
2023-11-08T14:08:14.339Z,100264.91
2023-11-08T14:11:16.025Z,100262.34
2023-11-08T14:14:17.701Z,100266.00
2023-11-08T14:17:19.407Z,100262.53
2023-11-08T14:20:21.115Z,100272.41
2023-11-08T14:23:24.209Z,100271.50
2023-11-08T14:26:25.939Z,100273.22
2023-11-08T14:29:33.780Z,100280.31
2023-11-08T14:32:40.373Z,100273.34
2023-11-08T14:35:42.154Z,100272.41
2023-11-08T14:38:45.262Z,100272.47
2023-11-08T14:41:47.036Z,100274.34
2023-11-08T14:44:48.840Z,100270.81
2023-11-08T14:47:51.417Z,100275.28
2023-11-08T14:50:53.510Z,100272.66
2023-11-08T14:53:56.917Z,100267.38
2023-11-08T14:56:58.617Z,100279.81
2023-11-08T15:00:00.323Z,100275.41
2023-11-08T15:03:02.139Z,100276.28
2023-11-08T15:06:04.662Z,100274.63
2023-11-08T15:09:52.090Z,100273.78
2023-11-08T15:12:29.648Z,100264.97
2023-11-08T15:15:31.347Z,100265.91
2023-11-08T15:18:33.082Z,100276.63
2023-11-08T15:21:34.880Z,100280.19
2023-11-08T15:24:38.034Z,100275.78
2023-11-08T15:27:39.790Z,100286.41
2023-11-08T15:30:43.056Z,100280.25
2023-11-08T15:33:44.844Z,100278.44
2023-11-08T15:36:46.571Z,100289.13
2023-11-08T15:39:49.966Z,100294.50
2023-11-08T15:42:51.722Z,100296.31
2023-11-08T15:45:53.499Z,100290.19
2023-11-08T15:48:55.377Z,100297.28
2023-11-08T15:51:57.132Z,100304.38
2023-11-08T15:55:00.415Z,100294.66
2023-11-08T15:58:02.181Z,100298.19
2023-11-08T16:01:04.548Z,100297.34
2023-11-08T16:04:06.529Z,100294.69
2023-11-08T16:07:08.383Z,100296.41
2023-11-08T16:10:11.767Z,100299.97
2023-11-08T16:13:13.568Z,100301.69
2023-11-08T16:16:15.329Z,100302.59
2023-11-08T16:19:17.044Z,100307.03
2023-11-08T16:22:19.293Z,100300.84
2023-11-08T16:25:22.459Z,100305.28
2023-11-08T16:28:24.211Z,100307.06
2023-11-08T16:32:31.462Z,100309.72
2023-11-08T16:34:47.693Z,100315.91
2023-11-08T16:37:50.000Z,100315.91
2023-11-08T16:40:54.119Z,100307.94
2023-11-08T16:43:56.345Z,100315.91
2023-11-08T16:46:58.662Z,100315.03
2023-11-08T16:50:01.048Z,100318.59
2023-11-08T16:53:03.976Z,100323.00
2023-11-08T16:56:07.842Z,100330.97
2023-11-08T16:59:10.168Z,100341.56
2023-11-08T17:02:12.289Z,100338.91
2023-11-08T17:05:14.636Z,100343.28
2023-11-08T17:08:16.749Z,100344.13
2023-11-08T17:11:20.358Z,100338.81
2023-11-08T17:14:22.304Z,100343.19
2023-11-08T17:17:25.299Z,100338.75
2023-11-08T17:20:27.780Z,100333.41
2023-11-08T17:23:29.794Z,100336.03
2023-11-08T17:26:34.120Z,100338.59
2023-11-08T17:29:38.272Z,100346.53
2023-11-08T17:32:40.868Z,100343.78
2023-11-08T17:35:43.559Z,100348.19
2023-11-08T17:38:46.192Z,100349.00
2023-11-08T17:41:50.656Z,100340.13
2023-11-08T17:44:52.433Z,100350.66
2023-11-08T17:47:54.691Z,100348.81
2023-11-08T17:50:57.009Z,100359.34
2023-11-08T17:53:59.278Z,100358.41
2023-11-08T17:57:03.474Z,100357.44
2023-11-08T18:00:06.625Z,100370.56
2023-11-08T18:03:09.002Z,100371.38
2023-11-08T18:06:12.581Z,100367.78
2023-11-08T18:09:17.209Z,100369.47
2023-11-08T18:12:20.315Z,100359.72
2023-11-08T18:15:22.422Z,100362.31
2023-11-08T18:18:25.316Z,100362.31
2023-11-08T18:21:28.193Z,100373.72
2023-11-08T18:24:31.946Z,100370.25
2023-11-08T18:27:38.117Z,100372.84
2023-11-08T18:30:42.165Z,100375.47
2023-11-08T18:33:44.751Z,100380.47
2023-11-08T18:36:47.651Z,100376.19
2023-11-08T18:39:51.013Z,100384.09
2023-11-08T18:42:55.788Z,100384.06
2023-11-08T18:46:00.349Z,100390.16
2023-11-08T18:49:03.321Z,100377.75
2023-11-08T18:52:06.673Z,100393.53
2023-11-08T18:55:10.140Z,100396.06
2023-11-08T18:58:15.722Z,100399.59
2023-11-08T19:01:19.010Z,100397.81
2023-11-08T19:04:21.884Z,100400.44
2023-11-08T19:07:24.362Z,100397.69
2023-11-08T19:10:26.947Z,100400.22
2023-11-08T19:13:30.892Z,100407.25
2023-11-08T19:16:33.924Z,100411.63
2023-11-08T19:19:36.860Z,100413.25
2023-11-08T19:22:39.320Z,100417.56
2023-11-08T19:25:45.397Z,100413.97
2023-11-08T19:28:50.226Z,100409.50
2023-11-08T19:31:53.173Z,100417.34
2023-11-08T19:34:56.441Z,100409.34
2023-11-08T19:37:58.912Z,100414.53
2023-11-08T19:41:01.283Z,100408.28
2023-11-08T19:44:06.067Z,100424.09
2023-11-08T19:47:08.600Z,100425.94
2023-11-08T19:50:14.002Z,100429.41
2023-11-08T19:53:16.285Z,100430.25
2023-11-08T19:56:19.252Z,100425.88
2023-11-08T19:59:23.927Z,100426.72
2023-11-08T20:02:27.253Z,100433.66
2023-11-08T20:05:30.866Z,100432.81
2023-11-08T20:08:34.482Z,100433.53
2023-11-08T20:11:37.989Z,100430.91
2023-11-08T20:14:43.130Z,100427.31
2023-11-08T20:17:46.426Z,100429.84
2023-11-08T20:20:49.316Z,100426.25
2023-11-08T20:23:52.582Z,100423.56
2023-11-08T20:26:55.209Z,100422.31
2023-11-08T20:30:01.461Z,100418.09
2023-11-08T20:33:04.660Z,100421.66
2023-11-08T20:36:08.087Z,100419.91
2023-11-08T20:39:11.360Z,100419.03
2023-11-08T20:42:15.065Z,100425.09
2023-11-08T20:45:19.545Z,100426.84
2023-11-08T20:48:21.955Z,100427.66
2023-11-08T20:51:24.825Z,100418.75
2023-11-08T20:54:26.983Z,100426.63
2023-11-08T20:57:32.239Z,100423.06
2023-11-08T21:00:35.450Z,100424.72
2023-11-08T21:03:37.539Z,100429.94
2023-11-08T21:06:39.298Z,100431.56
2023-11-08T21:09:41.082Z,100435.09
2023-11-08T21:12:42.807Z,100437.72
2023-11-08T21:15:46.114Z,100440.25
2023-11-08T21:18:48.178Z,100442.84
2023-11-08T21:21:49.980Z,100436.63
2023-11-08T21:24:52.030Z,100436.63
2023-11-08T21:27:54.236Z,100442.78
2023-11-08T21:30:57.497Z,100441.94
2023-11-08T21:33:59.568Z,100437.41
2023-11-08T21:37:01.405Z,100442.19
2023-11-08T21:40:03.846Z,100446.91
2023-11-08T21:43:05.751Z,100436.59
2023-11-08T21:46:08.989Z,100435.66
2023-11-08T21:49:10.980Z,100449.34
2023-11-08T21:52:12.906Z,100446.16
2023-11-08T21:55:14.746Z,100438.38
2023-11-08T21:58:16.503Z,100441.94
2023-11-08T22:01:19.561Z,100436.63
2023-11-08T22:04:21.332Z,100445.41
2023-11-08T22:07:23.069Z,100433.00
2023-11-08T22:10:24.799Z,100436.41
2023-11-08T22:13:26.550Z,100430.16
2023-11-08T22:16:29.577Z,100434.44
2023-11-08T22:19:31.411Z,100436.13
2023-11-08T22:22:33.085Z,100431.72
2023-11-08T22:25:34.802Z,100426.53
2023-11-08T22:28:36.458Z,100426.44
2023-11-08T22:31:39.500Z,100417.59
2023-11-08T22:34:41.164Z,100412.16
2023-11-08T22:37:42.826Z,100410.34
2023-11-08T22:40:44.505Z,100412.91
2023-11-08T22:43:46.199Z,100411.84
2023-11-08T22:46:49.276Z,100410.13
2023-11-08T22:49:50.994Z,100413.56
2023-11-08T22:52:52.698Z,100419.59
2023-11-08T22:55:54.400Z,100416.78
2023-11-08T22:58:56.094Z,100411.41
2023-11-08T23:01:59.251Z,100412.28
2023-11-08T23:05:01.024Z,100413.16
2023-11-08T23:08:02.761Z,100415.47
2023-11-08T23:11:04.670Z,100415.19
2023-11-08T23:14:06.349Z,100414.75
2023-11-08T23:17:09.337Z,100412.75
2023-11-08T23:20:12.367Z,100409.66
2023-11-08T23:23:14.098Z,100403.56
2023-11-08T23:26:15.851Z,100409.56
2023-11-08T23:29:17.515Z,100403.66
2023-11-08T23:32:20.568Z,100402.16
2023-11-08T23:35:22.415Z,100403.28
2023-11-08T23:38:24.189Z,100405.03
2023-11-08T23:41:25.884Z,100398.06
2023-11-08T23:44:27.512Z,100412.31
2023-11-08T23:47:30.561Z,100411.66
2023-11-08T23:50:32.222Z,100405.28
2023-11-08T23:53:33.876Z,100410.41
2023-11-08T23:56:35.537Z,100405.50
2023-11-08T23:59:37.183Z,100403.06
